Pagina principale
METAR-TAF:

METAR-TAF

Aeroporti :

Sohag, Egitto

latitudine: 26-20-25N, longitudine: 31-44-20E, altezza: 70 m

Osservazione

Il bollettino è stato emesso 1 ora e 28 minuti fa, alle 06:00 UTC
Vento 5 kt da nord/nord-ovest
Temperature 30°C
Umidità 31%
Pressione 1010 hPa
Visibilità 10 km o più
nessuna nube inferiore a 1500 m e nessun cumulonembo

METAR: HESG 200600Z 34005KT CAVOK 30/11 Q1010 NOSIG

Ora: 09:28 (07:28 UTC)

Previsione

Il bollettino è stato emesso 2 ore e 28 minuti fa, alle 05:00 UTC
Previsione valida dal 20 alle 06 UTC al 21 alle 12 UTC
Vento 8 kt da ovest con raffiche fino a 18 kt
Visibilità 10 km o più
nessuna nube inferiore a 1500 m e nessun cumulonembo

TAF: HESG 200500Z 2006/2112 28008G18KT CAVOK

Osservazioni e previsioni meteorologiche di più di 4000 aeroporti (messaggi METAR e TAF).

Le stazioni disponibili sono rappresentate dai dischi gialli e rossi sulla carta.

Puntare il mouse per vedere il nome della stazione.

Clicca sopra per visualizzare le osservazioni e previsioni meteorologiche.

Per cambiare la mappa : fare clic sui pulsanti verdi con una croce nera per ingrandire, il pulsante verde con un trattino per diminuire, o sulla freccia verde per le mappe adiacenti.


METAR-TAF: